Time;durP1;ratioP1;P1;durP2;ratioP2;P2;SDS_P1;SDS_P2;PMS_P1;PMS_P2;Temp;Humidity;BMP_temperature;BMP_pressure;BME280_temperature;BME280_humidity;BME280_pressure;Samples;Min_cycle;Max_cycle;Signal;HPM_P1;HPM_P2
2023/04/07 00:00:35;;;;;;;61.18;55.15;;;;;;;3.72;99.13;100165.78;1739894;82;27738;-50
2023/04/07 00:03:05;;;;;;;;;;;;;;;3.74;99.12;100168.98;1742411;82;25602;-50
2023/04/07 00:05:32;;;;;;;94.07;85.60;;;;;;;3.75;99.12;100167.92;1739890;82;25574;-54
2023/04/07 00:07:59;;;;;;;93.87;85.65;;;;;;;3.78;99.17;100166.58;1713595;82;25674;-53
2023/04/07 00:10:26;;;;;;;93.50;85.42;;;;;;;3.77;99.22;100164.45;1739914;82;25582;-50
2023/04/07 00:12:52;;;;;;;92.10;84.37;;;;;;;3.77;99.22;100148.39;1739834;82;27405;-50
2023/04/07 00:15:18;;;;;;;92.37;84.42;;;;;;;3.78;99.28;100152.69;1739763;82;25613;-50
2023/04/07 00:17:45;;;;;;;92.17;84.28;;;;;;;3.79;99.38;100154.27;1713437;82;25642;-49
2023/04/07 00:20:12;;;;;;;91.28;83.52;;;;;;;3.82;99.41;100152.95;1739762;82;25621;-50
2023/04/07 00:22:38;;;;;;;91.53;83.45;;;;;;;3.84;99.47;100150.80;1739839;82;25559;-50
2023/04/07 00:25:07;;;;;;;92.42;84.30;;;;;;;3.84;99.47;100152.14;1739819;82;27291;-50
2023/04/07 00:27:34;;;;;;;91.15;83.22;;;;;;;3.84;99.60;100153.48;1716905;82;27252;-50
2023/04/07 00:30:00;;;;;;;92.20;84.30;;;;;;;3.86;99.70;100144.64;1739858;82;25613;-50
2023/04/07 00:32:26;;;;;;;90.00;82.40;;;;;;;3.88;99.70;100147.84;1739807;82;25656;-50
2023/04/07 00:34:53;;;;;;;90.67;83.15;;;;;;;3.90;99.70;100147.07;1713242;82;25426;-53
2023/04/07 00:37:19;;;;;;;90.87;82.75;;;;;;;3.90;99.74;100139.05;1739792;82;27453;-50
2023/04/07 00:39:46;;;;;;;91.78;83.70;;;;;;;3.92;99.74;100138.23;1739724;82;25645;-51
2023/04/07 00:42:13;;;;;;;93.70;85.70;;;;;;;3.93;99.80;100139.82;1739813;82;25555;-50
2023/04/07 00:44:39;;;;;;;45.28;37.85;;;;;;;3.95;99.75;100139.55;1739769;82;27785;-50
2023/04/07 00:47:06;;;;;;;95.25;86.42;;;;;;;3.98;99.82;100139.81;1713498;82;25516;-50
2023/04/07 00:49:32;;;;;;;94.32;85.62;;;;;;;3.98;99.87;100140.36;1713400;82;27187;-51
2023/04/07 00:51:59;;;;;;;96.25;87.92;;;;;;;3.99;99.92;100142.77;1739694;82;25454;-50
2023/04/07 00:54:26;;;;;;;99.65;90.77;;;;;;;4.00;99.98;100147.06;1739748;82;25555;-50
2023/04/07 00:56:53;;;;;;;93.05;84.90;;;;;;;4.00;100.00;100140.38;1739814;82;25615;-50
2023/04/07 00:59:20;;;;;;;94.80;86.35;;;;;;;4.02;100.00;100134.22;1739825;82;25451;-53
2023/04/07 01:02:21;;;;;;;94.03;85.60;;;;;;;4.03;100.00;100139.81;1716825;82;27513;-51
2023/04/07 01:05:09;;;;;;;92.12;84.25;;;;;;;4.04;100.00;100134.74;1739716;82;26016;-50
2023/04/07 01:08:24;;;;;;;92.27;83.92;;;;;;;4.06;100.00;100138.49;1739849;82;25584;-50
2023/04/07 01:11:02;;;;;;;93.92;85.57;;;;;;;4.08;100.00;100132.33;1739782;82;25619;-50
2023/04/07 01:13:51;;;;;;;93.58;85.12;;;;;;;4.08;100.00;100131.78;1739865;82;25616;-50
2023/04/07 01:16:29;;;;;;;67.90;62.05;;;;;;;4.09;100.00;100137.41;1739933;82;27352;-50
2023/04/07 01:19:01;;;;;;;96.72;88.07;;;;;;;4.11;100.00;100137.15;1739707;82;25481;-50
2023/04/07 01:21:30;;;;;;;97.37;88.50;;;;;;;4.12;100.00;100125.37;1739854;82;25470;-50
2023/04/07 01:24:21;;;;;;;;;;;;;;;4.13;100.00;100139.02;1742193;82;25783;-51
2023/04/07 01:26:50;;;;;;;89.90;81.82;;;;;;;4.15;100.00;100129.38;1604246;89;25521;-50
2023/04/07 01:29:36;;;;;;;67.75;61.90;;;;;;;4.17;100.00;100131.24;1604599;89;27962;-50
2023/04/07 01:32:06;;;;;;;97.15;88.12;;;;;;;4.17;100.00;100125.89;1603840;89;25706;-51
2023/04/07 01:34:34;;;;;;;98.37;89.67;;;;;;;4.18;100.00;100124.83;1604284;89;25625;-51
2023/04/07 01:37:02;;;;;;;97.37;88.45;;;;;;;4.20;100.00;100121.34;1604255;89;26384;-51
2023/04/07 01:39:29;;;;;;;100.02;90.25;;;;;;;4.21;100.00;100120.28;1604206;89;25483;-52
2023/04/07 01:42:01;;;;;;;97.97;89.07;;;;;;;4.22;100.00;100123.20;1604260;88;27328;-51
2023/04/07 01:44:28;;;;;;;96.80;87.67;;;;;;;4.22;100.00;100126.70;1604106;87;25736;-51
2023/04/07 01:46:55;;;;;;;97.22;88.20;;;;;;;4.24;100.00;100115.18;1604234;89;25765;-50
2023/04/07 01:49:24;;;;;;;99.67;90.72;;;;;;;4.25;100.00;100122.13;1604219;89;25737;-51
2023/04/07 01:51:52;;;;;;;100.05;90.92;;;;;;;4.27;100.00;100123.19;1604358;89;32178;-50
2023/04/07 01:54:19;;;;;;;41.75;24.15;;;;;;;4.28;100.00;100116.78;1581971;89;27258;-50
2023/04/07 01:56:46;;;;;;;73.92;66.37;;;;;;;4.30;100.00;100116.75;1610316;84;25647;-51
2023/04/07 01:59:13;;;;;;;95.85;86.70;;;;;;;4.32;100.00;100117.83;1706401;83;25442;-50
2023/04/07 02:01:39;;;;;;;101.82;91.90;;;;;;;4.33;100.00;100118.10;1706409;84;25685;-50
2023/04/07 02:04:25;;;;;;;99.47;90.32;;;;;;;4.35;100.00;100114.61;1706407;84;25632;-50
2023/04/07 02:07:03;;;;;;;99.87;90.83;;;;;;;4.36;100.00;100125.60;1640030;86;27958;-51
2023/04/07 02:09:32;;;;;;;101.47;91.70;;;;;;;4.39;100.00;100120.22;1650669;86;25468;-51
2023/04/07 02:12:01;;;;;;;99.95;90.65;;;;;;;4.41;100.00;100116.73;1650913;86;25460;-51
2023/04/07 02:14:28;;;;;;;98.15;89.30;;;;;;;4.42;100.00;100115.13;1650886;86;25726;-51
2023/04/07 02:16:56;;;;;;;100.65;91.22;;;;;;;4.44;100.00;100117.53;1650784;86;25659;-52
2023/04/07 02:19:23;;;;;;;101.45;91.55;;;;;;;4.46;100.00;100115.37;1650763;86;27362;-52
2023/04/07 02:22:00;;;;;;;102.60;92.57;;;;;;;4.48;100.00;100111.91;1650704;86;25263;-52
2023/04/07 02:24:26;;;;;;;102.70;92.82;;;;;;;4.47;100.00;100112.98;1650795;86;25630;-54
2023/04/07 02:26:53;;;;;;;99.97;89.72;;;;;;;4.51;100.00;100114.56;1650812;86;25694;-54
2023/04/07 02:29:19;;;;;;;102.67;92.62;;;;;;;4.51;100.00;100112.69;1650879;86;25488;-51
2023/04/07 02:31:45;;;;;;;100.55;91.53;;;;;;;4.52;100.00;100114.84;1650754;86;27373;-50
2023/04/07 02:34:12;;;;;;;100.50;91.10;;;;;;;4.54;100.00;100112.14;1650702;86;25595;-50
2023/04/07 02:36:38;;;;;;;102.20;92.05;;;;;;;4.54;100.00;100110.80;1650752;86;25539;-51
2023/04/07 02:39:04;;;;;;;103.25;93.37;;;;;;;4.57;100.00;100116.17;1650687;86;25682;-51
2023/04/07 02:41:31;;;;;;;102.53;92.27;;;;;;;4.58;100.00;100119.92;1650814;86;25550;-51
2023/04/07 02:43:57;;;;;;;101.27;91.92;;;;;;;4.59;100.00;100116.14;1680902;84;27413;-54
2023/04/07 02:46:24;;;;;;;103.17;93.17;;;;;;;4.61;100.00;100111.86;1706341;84;25407;-52
2023/04/07 02:48:51;;;;;;;103.72;93.80;;;;;;;4.62;100.00;100116.16;1706380;84;25603;-50
2023/04/07 02:51:17;;;;;;;99.72;90.55;;;;;;;4.63;100.00;100111.86;1706322;83;25755;-50
2023/04/07 02:53:44;;;;;;;101.02;91.25;;;;;;;4.64;100.00;100112.11;1706399;84;25545;-50
2023/04/07 02:56:10;;;;;;;102.15;92.12;;;;;;;4.66;100.00;100117.20;1720629;82;27410;-51
2023/04/07 02:58:37;;;;;;;100.65;91.28;;;;;;;4.67;100.00;100119.61;1722664;83;25774;-50
2023/04/07 03:01:04;;;;;;;100.90;91.60;;;;;;;4.69;100.00;100113.98;1722736;83;25611;-50
2023/04/07 03:03:31;;;;;;;104.03;94.37;;;;;;;4.69;100.00;100116.66;1722736;83;25768;-52
2023/04/07 03:05:57;;;;;;;102.02;92.30;;;;;;;4.69;100.00;100120.67;1722771;82;25664;-53
2023/04/07 03:08:24;;;;;;;103.80;93.70;;;;;;;4.71;100.00;100116.39;1722730;83;27397;-51
2023/04/07 03:10:51;;;;;;;101.58;91.67;;;;;;;4.73;100.00;100119.04;1722694;83;25395;-51
2023/04/07 03:13:18;;;;;;;101.95;91.70;;;;;;;4.73;100.00;100120.38;1696889;83;25507;-51
2023/04/07 03:15:46;;;;;;;104.75;94.37;;;;;;;4.75;100.00;100114.23;1722755;83;25698;-50
2023/04/07 03:18:12;;;;;;;101.87;91.95;;;;;;;4.76;100.00;100116.37;1722748;82;25430;-52
2023/04/07 03:20:40;;;;;;;103.67;93.62;;;;;;;4.78;100.00;100121.70;1700079;83;27379;-51
2023/04/07 03:23:07;;;;;;;103.50;93.45;;;;;;;4.79;100.00;100125.99;1696894;83;25700;-50
2023/04/07 03:25:33;;;;;;;104.17;93.58;;;;;;;4.80;100.00;100117.41;1722773;83;25391;-50
2023/04/07 03:28:00;;;;;;;102.15;92.00;;;;;;;4.81;100.00;100123.05;1722701;82;26172;-50
2023/04/07 03:30:28;;;;;;;103.25;93.00;;;;;;;4.82;100.00;100130.02;1722745;83;25457;-51
2023/04/07 03:32:54;;;;;;;104.70;94.05;;;;;;;4.82;100.00;100132.16;1722720;83;27335;-51
2023/04/07 03:35:21;;;;;;;104.30;93.87;;;;;;;4.84;100.00;100125.18;1673425;83;25604;-51
2023/04/07 03:37:47;;;;;;;104.67;94.35;;;;;;;4.86;100.00;100129.72;1722722;82;25555;-51
2023/04/07 03:40:14;;;;;;;102.53;92.67;;;;;;;4.87;100.00;100125.98;1722660;83;25682;-50
2023/04/07 03:42:41;;;;;;;101.92;92.10;;;;;;;4.89;100.00;100118.97;1700163;83;25588;-51
2023/04/07 03:45:08;;;;;;;99.90;90.10;;;;;;;4.89;100.00;100124.34;1722731;83;27388;-52
2023/04/07 03:47:36;;;;;;;101.82;92.40;;;;;;;4.90;100.00;100121.38;1700074;83;25791;-51
2023/04/07 03:50:02;;;;;;;101.72;91.57;;;;;;;4.92;100.00;100116.58;1722810;83;25635;-54
2023/04/07 03:52:29;;;;;;;102.32;92.42;;;;;;;4.93;100.00;100122.73;1722802;83;25633;-51
2023/04/07 03:54:55;;;;;;;104.65;94.47;;;;;;;4.94;100.00;100118.95;1727574;81;25445;-51
2023/04/07 03:57:25;;;;;;;102.15;92.40;;;;;;;4.95;100.00;100121.91;1745270;82;27321;-53
2023/04/07 03:59:51;;;;;;;101.78;91.90;;;;;;;4.96;100.00;100126.20;1745077;82;25812;-51
2023/04/07 04:02:18;;;;;;;101.42;91.30;;;;;;;4.97;100.00;100121.91;1745291;82;25636;-50
2023/04/07 04:04:45;;;;;;;102.10;92.65;;;;;;;4.97;100.00;100117.89;1745205;82;25747;-51
2023/04/07 04:07:11;;;;;;;101.85;92.05;;;;;;;4.99;100.00;100118.41;1745231;82;25657;-51
2023/04/07 04:09:38;;;;;;;103.62;93.97;;;;;;;5.00;100.00;100120.00;1745255;82;27931;-50
2023/04/07 04:12:05;;;;;;;104.45;93.75;;;;;;;5.02;100.00;100121.06;1710492;82;25475;-53
2023/04/07 04:14:32;;;;;;;102.10;92.42;;;;;;;5.04;100.00;100131.00;1745280;82;25410;-54
2023/04/07 04:16:58;;;;;;;101.67;92.17;;;;;;;5.04;100.00;100127.77;1745219;82;25620;-53
2023/04/07 04:19:25;;;;;;;102.82;92.57;;;;;;;5.05;100.00;100134.72;1745301;82;25450;-54
2023/04/07 04:21:52;;;;;;;103.20;93.35;;;;;;;5.06;100.00;100132.86;1745253;82;27334;-54
2023/04/07 04:24:18;;;;;;;101.85;91.90;;;;;;;5.08;100.00;100130.70;1745103;82;25831;-54
2023/04/07 04:26:45;;;;;;;103.85;93.67;;;;;;;5.10;100.00;100139.80;1713922;82;25640;-50
2023/04/07 04:29:11;;;;;;;103.55;93.10;;;;;;;5.10;100.00;100139.26;1745165;82;25744;-51
2023/04/07 04:31:38;;;;;;;56.90;25.48;;;;;;;5.11;100.00;100140.05;1745313;82;25593;-51
2023/04/07 04:34:04;;;;;;;104.55;94.10;;;;;;;5.13;100.00;100142.73;1745222;82;27316;-52
2023/04/07 04:36:31;;;;;;;103.78;93.35;;;;;;;5.14;100.00;100140.33;1745163;82;25402;-51
2023/04/07 04:38:58;;;;;;;103.45;93.07;;;;;;;5.16;100.00;100142.19;1745324;82;25597;-51
2023/04/07 04:41:24;;;;;;;104.32;93.90;;;;;;;5.17;100.00;100142.43;1745283;82;26549;-50
2023/04/07 04:43:51;;;;;;;106.25;95.65;;;;;;;5.18;100.00;100141.91;1745422;82;25430;-52
2023/04/07 04:46:18;;;;;;;104.53;94.22;;;;;;;5.20;100.00;100149.14;1710679;82;27071;-52
2023/04/07 04:48:44;;;;;;;104.15;93.78;;;;;;;5.21;100.00;100143.50;1745353;82;25440;-51
2023/04/07 04:51:10;;;;;;;103.85;93.65;;;;;;;5.21;100.00;100140.81;1745387;82;25578;-49
2023/04/07 04:53:37;;;;;;;102.80;92.37;;;;;;;5.23;100.00;100149.38;1745356;81;25599;-50
2023/04/07 04:56:05;;;;;;;104.60;94.60;;;;;;;5.24;100.00;100146.98;1752371;81;25974;-51
2023/04/07 04:58:33;;;;;;;101.72;91.32;;;;;;;5.24;100.00;100151.00;1758614;81;27402;-51
2023/04/07 05:01:00;;;;;;;103.05;93.00;;;;;;;5.26;100.00;100152.59;1758314;81;25400;-51
2023/04/07 05:03:28;;;;;;;105.50;94.95;;;;;;;5.29;100.00;100147.47;1758430;81;25425;-51
2023/04/07 05:05:54;;;;;;;104.38;94.30;;;;;;;5.28;100.00;100149.91;1758426;81;25891;-51
2023/04/07 05:08:21;;;;;;;102.40;92.50;;;;;;;5.31;100.00;100141.31;1758462;81;25626;-51
2023/04/07 05:10:47;;;;;;;104.25;93.87;;;;;;;5.29;100.00;100146.13;1758453;81;28124;-51
2023/04/07 05:13:13;;;;;;;106.43;95.70;;;;;;;5.34;100.00;100149.33;1758339;81;25805;-51
2023/04/07 05:15:41;;;;;;;103.87;94.17;;;;;;;5.36;100.00;100151.19;1758432;81;25544;-51
2023/04/07 05:18:08;;;;;;;104.92;94.35;;;;;;;5.37;100.00;100151.46;1758429;81;25730;-51
2023/04/07 05:20:34;;;;;;;102.55;92.92;;;;;;;5.40;100.00;100150.36;1758533;81;25639;-53
2023/04/07 05:23:00;;;;;;;103.02;93.30;;;;;;;5.43;100.00;100152.49;1731688;81;27256;-49
2023/04/07 05:25:28;;;;;;;103.05;93.25;;;;;;;5.47;100.00;100148.72;1758330;80;27116;-50
2023/04/07 05:27:54;;;;;;;105.85;95.28;;;;;;;5.50;100.00;100152.70;1758487;81;25411;-53
2023/04/07 05:30:21;;;;;;;103.42;93.75;;;;;;;5.52;100.00;100151.36;1758410;81;25679;-54
2023/04/07 05:32:47;;;;;;;102.58;92.85;;;;;;;5.57;100.00;100155.91;1736950;81;25646;-52
2023/04/07 05:35:14;;;;;;;103.90;93.62;;;;;;;5.59;100.00;100146.48;1758473;81;28019;-53
2023/04/07 05:37:41;;;;;;;104.05;94.17;;;;;;;5.63;100.00;100155.32;1758374;80;25601;-52
2023/04/07 05:40:09;;;;;;;102.50;92.67;;;;;;;5.64;100.00;100155.05;1758425;81;25417;-51
2023/04/07 05:42:35;;;;;;;50.30;26.73;;;;;;;5.66;100.00;100154.77;1758411;81;25603;-49
2023/04/07 05:45:03;;;;;;;107.10;96.78;;;;;;;5.70;100.00;100155.80;1758541;81;25577;-54
2023/04/07 05:47:30;;;;;;;101.62;92.25;;;;;;;5.70;100.00;100156.59;1758432;81;27999;-50
2023/04/07 05:49:56;;;;;;;102.42;92.02;;;;;;;5.74;100.00;100159.55;1758303;81;25595;-54
2023/04/07 05:52:23;;;;;;;103.87;93.78;;;;;;;5.75;100.00;100156.55;1758398;81;25567;-54
2023/04/07 05:54:49;;;;;;;102.30;92.65;;;;;;;5.78;100.00;100155.20;1758405;81;25635;-50
2023/04/07 05:57:16;;;;;;;104.60;94.58;;;;;;;5.79;100.00;100159.51;1741368;81;25548;-51
2023/04/07 05:59:43;;;;;;;103.55;93.45;;;;;;;5.83;100.00;100160.53;1739744;82;27398;-52
2023/04/07 06:02:10;;;;;;;103.10;93.33;;;;;;;5.85;100.00;100158.92;1739730;82;25583;-51
2023/04/07 06:04:38;;;;;;;103.92;94.35;;;;;;;5.88;100.00;100152.99;1739812;82;25573;-53
2023/04/07 06:07:04;;;;;;;102.53;93.00;;;;;;;5.88;100.00;100155.13;1739739;82;25654;-52
2023/04/07 06:09:31;;;;;;;104.40;94.83;;;;;;;5.93;100.00;100155.64;1739825;82;25505;-51
2023/04/07 06:11:58;;;;;;;105.50;95.65;;;;;;;5.96;100.00;100149.19;1739764;82;27469;-49
2023/04/07 06:14:25;;;;;;;102.45;92.95;;;;;;;6.00;100.00;100149.42;1739709;82;25596;-52
2023/04/07 06:16:51;;;;;;;101.90;92.15;;;;;;;6.04;100.00;100151.00;1739816;82;25590;-52
2023/04/07 06:19:17;;;;;;;102.00;92.35;;;;;;;6.11;100.00;100150.95;1739798;82;25681;-51
2023/04/07 06:21:44;;;;;;;101.82;92.65;;;;;;;6.18;100.00;100153.31;1739739;82;25401;-51
2023/04/07 06:24:11;;;;;;;101.53;92.45;;;;;;;6.27;100.00;100154.28;1739742;82;27283;-54
2023/04/07 06:26:40;;;;;;;101.33;91.87;;;;;;;6.35;100.00;100149.64;1713362;82;25425;-49
2023/04/07 06:29:06;;;;;;;103.87;94.55;;;;;;;6.44;100.00;100151.72;1740013;82;25457;-50
2023/04/07 06:31:33;;;;;;;106.32;96.37;;;;;;;6.53;100.00;100152.69;1713474;82;26574;-50
2023/04/07 06:33:59;;;;;;;105.90;96.20;;;;;;;6.62;100.00;100144.24;1739869;82;25606;-52
2023/04/07 06:36:27;;;;;;;103.55;94.22;;;;;;;6.70;100.00;100151.69;1739723;82;27349;-52
2023/04/07 06:38:54;;;;;;;104.53;94.80;;;;;;;6.78;100.00;100152.16;1739908;82;25651;-51
2023/04/07 06:41:20;;;;;;;106.63;96.72;;;;;;;6.85;100.00;100152.06;1739646;82;25466;-51
2023/04/07 06:43:54;;;;;;;104.58;94.83;;;;;;;6.97;100.00;100154.34;1739703;82;26354;-52
2023/04/07 06:46:21;;;;;;;105.78;96.30;;;;;;;7.04;100.00;100147.27;1738479;82;25619;-53
2023/04/07 06:48:49;;;;;;;106.27;96.42;;;;;;;7.10;100.00;100148.81;1739715;82;25832;-51
2023/04/07 06:51:16;;;;;;;104.72;94.95;;;;;;;7.16;100.00;100140.91;1739666;82;25531;-54
2023/04/07 06:53:43;;;;;;;108.42;98.07;;;;;;;7.20;100.00;100143.30;1739714;82;25611;-55
2023/04/07 06:56:11;;;;;;;61.75;48.23;;;;;;;7.25;100.00;100137.02;1739721;82;26226;-51
2023/04/07 06:58:38;;;;;;;107.87;97.67;;;;;;;7.28;100.00;100148.00;1714073;82;25431;-52
2023/04/07 07:01:05;;;;;;;105.87;96.02;;;;;;;7.28;100.00;100140.48;1740222;82;27439;-52
2023/04/07 07:03:32;;;;;;;105.25;95.95;;;;;;;7.32;100.00;100139.36;1740177;82;25575;-51
2023/04/07 07:06:01;;;;;;;103.72;93.95;;;;;;;7.35;100.00;100142.81;1719355;82;25426;-51
2023/04/07 07:08:28;;;;;;;39.05;23.50;;;;;;;7.39;100.00;100139.78;1740231;82;25618;-55
2023/04/07 07:10:55;;;;;;;102.78;93.67;;;;;;;7.46;100.00;100146.42;1740303;82;25590;-53
2023/04/07 07:13:27;;;;;;;104.53;95.00;;;;;;;7.54;100.00;100144.16;1740256;82;27404;-52
2023/04/07 07:15:54;;;;;;;100.22;91.20;;;;;;;7.60;100.00;100147.83;1740185;82;25725;-50
2023/04/07 07:18:21;;;;;;;102.70;93.33;;;;;;;7.66;100.00;100152.05;1740197;82;25552;-51
2023/04/07 07:20:48;;;;;;;105.67;96.20;;;;;;;7.74;100.00;100147.88;1740170;82;25929;-54
2023/04/07 07:23:14;;;;;;;102.27;93.45;;;;;;;7.82;100.00;100149.91;1714010;82;25481;-55
2023/04/07 07:25:42;;;;;;;103.42;94.25;;;;;;;7.90;100.00;100155.19;1740211;82;27330;-54
2023/04/07 07:28:09;;;;;;;100.97;91.92;;;;;;;7.95;100.00;100152.41;1740133;82;25578;-51
2023/04/07 07:30:37;;;;;;;104.63;95.47;;;;;;;8.04;100.00;100155.23;1740230;82;25457;-51
2023/04/07 07:33:04;;;;;;;105.78;96.70;;;;;;;8.13;100.00;100156.70;1740422;81;25603;-51
2023/04/07 07:35:31;;;;;;;104.80;95.45;;;;;;;8.16;100.00;100158.80;1740243;82;25376;-54
2023/04/07 07:37:58;;;;;;;104.75;95.57;;;;;;;8.17;100.00;100161.20;1740237;82;27403;-51
2023/04/07 07:40:24;;;;;;;102.82;93.67;;;;;;;8.17;100.00;100163.90;1740181;82;25392;-51
2023/04/07 07:42:50;;;;;;;102.80;93.95;;;;;;;8.19;100.00;100164.95;1740259;82;25584;-54
2023/04/07 07:45:18;;;;;;;103.25;94.20;;;;;;;8.17;100.00;100166.59;1740181;82;25646;-54
2023/04/07 07:47:44;;;;;;;43.75;23.60;;;;;;;8.19;100.00;100160.91;1740256;82;25394;-52
2023/04/07 07:50:11;;;;;;;47.15;36.70;;;;;;;8.21;100.00;100161.41;1740188;82;27409;-53
2023/04/07 07:52:37;;;;;;;102.05;93.30;;;;;;;8.29;100.00;100167.47;1740126;82;25433;-52
2023/04/07 07:55:05;;;;;;;104.03;95.25;;;;;;;8.39;100.00;100162.42;1740199;82;25240;-51
2023/04/07 07:57:31;;;;;;;102.53;93.27;;;;;;;8.46;100.00;100166.11;1739719;82;25633;-51
2023/04/07 07:59:58;;;;;;;100.33;92.10;;;;;;;8.52;100.00;100170.33;1739681;82;25616;-52
2023/04/07 08:02:29;;;;;;;103.20;93.92;;;;;;;8.60;100.00;100169.64;1739666;82;27491;-50
2023/04/07 08:04:53;;;;;;;100.57;91.97;;;;;;;8.68;100.00;100170.27;1739304;82;26045;-51
2023/04/07 08:07:20;;;;;;;98.27;89.97;;;;;;;8.76;100.00;100170.92;1739720;82;25550;-51
2023/04/07 08:09:48;;;;;;;99.75;91.50;;;;;;;8.79;100.00;100165.50;1739658;82;26312;-51
2023/04/07 08:12:15;;;;;;;100.20;91.78;;;;;;;8.86;100.00;100165.89;1739788;82;25641;-55
2023/04/07 08:14:41;;;;;;;99.85;91.45;;;;;;;8.94;100.00;100167.09;1716833;82;27903;-53
2023/04/07 08:17:07;;;;;;;100.00;90.75;;;;;;;9.04;100.00;100166.07;1739722;82;25382;-53
2023/04/07 08:19:34;;;;;;;101.40;93.25;;;;;;;9.11;100.00;100165.92;1739878;82;25436;-53
2023/04/07 08:22:01;;;;;;;98.67;90.30;;;;;;;9.18;100.00;100161.47;1739782;82;25640;-50
2023/04/07 08:24:28;;;;;;;100.22;92.12;;;;;;;9.20;100.00;100163.88;1739899;82;25421;-52
2023/04/07 08:26:54;;;;;;;96.53;88.52;;;;;;;9.21;100.00;100169.50;1739829;82;27327;-54
2023/04/07 08:29:21;;;;;;;97.42;89.52;;;;;;;9.20;100.00;100164.66;1739732;82;25781;-53
2023/04/07 08:31:48;;;;;;;95.05;87.40;;;;;;;9.25;100.00;100171.86;1739944;82;25409;-51
2023/04/07 08:34:15;;;;;;;96.00;88.15;;;;;;;9.25;100.00;100165.91;1739824;82;25662;-52
2023/04/07 08:36:42;;;;;;;96.72;88.97;;;;;;;9.31;100.00;100173.33;1739835;82;25414;-52
2023/04/07 08:39:08;;;;;;;97.90;90.10;;;;;;;9.38;100.00;100167.52;1739819;82;27430;-53
2023/04/07 08:41:41;;;;;;;94.72;87.20;;;;;;;9.42;100.00;100168.53;1739718;82;25558;-51
2023/04/07 08:44:10;;;;;;;94.25;86.82;;;;;;;9.46;100.00;100171.64;1739838;82;25435;-51
2023/04/07 08:46:40;;;;;;;;;;;;;;;9.48;100.00;100170.81;1742348;82;25643;-51
2023/04/07 08:49:12;;;;;;;95.57;87.60;;;;;;;9.50;100.00;100178.58;1744370;81;25562;-54
2023/04/07 08:51:46;;;;;;;95.75;88.05;;;;;;;9.54;100.00;100164.17;1712842;83;27362;-50
2023/04/07 08:54:17;;;;;;;96.85;88.97;;;;;;;9.61;100.00;100169.72;1712782;83;25624;-50
2023/04/07 08:56:45;;;;;;;94.40;86.67;;;;;;;9.65;100.00;100171.51;1714948;83;25461;-53
2023/04/07 08:59:14;;;;;;;92.15;84.58;;;;;;;9.69;100.00;100167.64;1723092;83;25602;-50
2023/04/07 09:01:41;;;;;;;95.92;88.15;;;;;;;9.72;100.00;100168.36;1756979;81;25477;-54
2023/04/07 09:04:09;;;;;;;94.47;87.08;;;;;;;9.76;100.00;100173.41;1723158;83;27412;-54
2023/04/07 09:06:37;;;;;;;95.00;87.57;;;;;;;9.79;100.00;100176.86;1756749;81;25403;-51
2023/04/07 09:09:05;;;;;;;95.90;88.12;;;;;;;9.84;100.00;100171.33;1756884;81;25433;-54
2023/04/07 09:11:37;;;;;;;93.70;86.45;;;;;;;9.87;100.00;100175.31;1756835;81;25620;-50
2023/04/07 09:14:04;;;;;;;93.95;86.35;;;;;;;9.86;100.00;100173.17;1723223;83;25684;-52
2023/04/07 09:16:31;;;;;;;94.85;87.45;;;;;;;9.86;100.00;100175.08;1725085;81;27344;-51
2023/04/07 09:18:58;;;;;;;92.67;85.03;;;;;;;9.90;100.00;100177.41;1756731;81;25466;-53
2023/04/07 09:21:26;;;;;;;92.10;85.05;;;;;;;9.95;100.00;100177.28;1723083;83;25490;-53
2023/04/07 09:23:52;;;;;;;96.28;87.65;;;;;;;9.98;100.00;100171.27;1723062;83;26152;-51
2023/04/07 09:26:26;;;;;;;26.12;17.65;;;;;;;10.04;100.00;100167.31;1756814;81;25448;-51
2023/04/07 09:28:59;;;;;;;29.77;16.82;;;;;;;10.09;100.00;100165.84;1756838;81;27461;-52
2023/04/07 09:31:50;;;;;;;27.35;16.57;;;;;;;10.20;100.00;100167.75;1756754;81;25415;-50
2023/04/07 09:34:36;;;;;;;26.55;15.63;;;;;;;10.25;100.00;100163.56;1756844;81;25633;-52
2023/04/07 09:37:04;;;;;;;24.82;15.23;;;;;;;10.29;100.00;100164.53;1756011;81;25633;-50
2023/04/07 09:39:31;;;;;;;24.82;15.93;;;;;;;10.36;100.00;100152.52;1723149;83;25654;-53
2023/04/07 09:41:58;;;;;;;25.15;16.77;;;;;;;10.44;100.00;100161.23;1756798;81;27320;-50
2023/04/07 09:44:25;;;;;;;24.32;18.73;;;;;;;10.53;100.00;100170.73;1722999;83;25625;-51
2023/04/07 09:46:58;;;;;;;22.27;16.73;;;;;;;10.63;100.00;100166.40;1723120;83;25594;-51
2023/04/07 09:49:26;;;;;;;24.30;15.83;;;;;;;10.74;100.00;100168.27;1756810;81;25605;-54
2023/04/07 09:51:59;;;;;;;25.00;15.50;;;;;;;10.86;100.00;100167.66;1756817;81;25443;-51
2023/04/07 09:54:35;;;;;;;25.02;15.93;;;;;;;10.97;100.00;100164.36;1723129;83;27339;-51
2023/04/07 09:57:05;;;;;;;25.57;15.98;;;;;;;11.18;100.00;100159.70;1752659;81;25596;-51
2023/04/07 09:59:36;;;;;;;23.55;15.50;;;;;;;11.34;100.00;100163.56;1702700;84;25552;-50
2023/04/07 10:02:03;;;;;;;24.55;15.53;;;;;;;11.47;100.00;100165.08;1704236;84;25588;-51
2023/04/07 10:04:30;;;;;;;23.83;15.70;;;;;;;11.52;99.84;100166.27;1702667;84;25413;-49
2023/04/07 10:06:59;;;;;;;21.27;14.60;;;;;;;11.57;99.39;100170.18;1642035;85;27079;-54
2023/04/07 10:09:29;;;;;;;22.70;14.30;;;;;;;11.60;98.48;100172.26;1702557;84;25615;-50
2023/04/07 10:11:58;;;;;;;24.92;17.45;;;;;;;11.58;97.79;100171.78;1702635;84;25433;-51
2023/04/07 10:14:31;;;;;;;48.52;44.42;;;;;;;11.56;97.30;100176.70;1702581;84;25689;-52
2023/04/07 10:17:00;;;;;;;20.52;14.73;;;;;;;11.61;97.99;100170.34;1702665;84;25577;-49
2023/04/07 10:19:32;;;;;;;21.17;13.80;;;;;;;11.69;98.28;100171.69;1702756;83;27339;-51
2023/04/07 10:22:02;;;;;;;24.37;13.62;;;;;;;11.73;97.41;100178.08;1702516;84;25495;-50
2023/04/07 10:24:47;;;;;;;;;;;;;;;11.74;97.12;100177.52;1705157;83;25424;-53
2023/04/07 10:27:18;;;;;;;22.42;13.53;;;;;;;11.76;96.48;100177.98;1686906;85;25796;-51
2023/04/07 10:29:49;;;;;;;25.12;22.70;;;;;;;11.73;95.89;100178.62;1687424;85;25475;-51
2023/04/07 10:32:17;;;;;;;23.42;13.70;;;;;;;11.71;95.76;100178.14;1680487;84;27234;-51
2023/04/07 10:34:53;;;;;;;23.07;14.45;;;;;;;11.69;95.55;100175.75;1702775;84;25621;-49
2023/04/07 10:37:22;;;;;;;20.35;13.03;;;;;;;11.66;95.15;100181.80;1680349;84;25477;-50
2023/04/07 10:39:52;;;;;;;19.47;14.67;;;;;;;11.64;95.38;100186.75;1680731;84;25578;-49
2023/04/07 10:42:43;;;;;;;20.95;13.43;;;;;;;11.64;95.67;100178.63;1702614;84;25418;-50
2023/04/07 10:45:11;;;;;;;23.05;14.00;;;;;;;11.70;95.95;100183.34;1702598;84;28041;-50
2023/04/07 10:48:03;;;;;;;24.63;14.27;;;;;;;11.77;96.71;100181.73;1702741;84;25557;-49
2023/04/07 10:50:29;;;;;;;17.85;12.63;;;;;;;11.90;96.91;100180.52;1702706;84;25560;-50
2023/04/07 10:53:14;;;;;;;21.33;18.82;;;;;;;11.90;95.39;100175.92;1702574;84;26215;-50
2023/04/07 10:55:44;;;;;;;18.52;14.68;;;;;;;11.93;95.74;100180.70;1680607;84;25460;-52
2023/04/07 10:58:29;;;;;;;81.25;75.42;;;;;;;11.97;95.51;100180.89;1702555;84;27503;-52
2023/04/07 11:01:13;;;;;;;16.90;13.50;;;;;;;12.02;95.11;100183.97;1700587;84;25747;-51
2023/04/07 11:03:44;;;;;;;28.62;25.55;;;;;;;12.07;94.95;100177.84;1702633;84;25398;-52
2023/04/07 11:06:12;;;;;;;16.70;13.20;;;;;;;12.08;94.44;100184.84;1701229;84;25619;-50
2023/04/07 11:08:44;;;;;;;16.93;13.03;;;;;;;12.13;94.76;100187.38;1680675;84;25471;-50
2023/04/07 11:11:15;;;;;;;18.15;11.70;;;;;;;12.14;94.24;100187.63;1702603;84;27402;-52
2023/04/07 11:13:50;;;;;;;24.67;22.13;;;;;;;12.10;93.39;100190.73;1702510;84;25449;-50